createdAt,value
2023-03-24T00:00:45.948Z,0
2023-03-24T00:01:46.065Z,0
2023-03-24T00:02:47.133Z,0
2023-03-24T00:03:47.726Z,0
2023-03-24T00:04:48.030Z,0
2023-03-24T00:05:48.308Z,0
2023-03-24T00:06:48.926Z,0
2023-03-24T00:07:54.832Z,0
2023-03-24T00:08:50.693Z,0
2023-03-24T00:09:51.224Z,0
2023-03-24T00:10:52.690Z,0
2023-03-24T00:11:52.381Z,0
2023-03-24T00:12:53.078Z,0
2023-03-24T00:13:54.054Z,0
2023-03-24T00:14:55.218Z,0
2023-03-24T00:15:56.068Z,0
2023-03-24T00:16:55.739Z,0
2023-03-24T00:17:56.629Z,0
2023-03-24T00:18:57.060Z,0
2023-03-24T00:19:57.830Z,0
2023-03-24T00:20:58.824Z,0
2023-03-24T00:21:59.327Z,0
2023-03-24T00:22:59.836Z,0
2023-03-24T00:24:00.122Z,0
2023-03-24T00:25:00.855Z,0
2023-03-24T00:26:01.342Z,0
2023-03-24T00:27:01.353Z,0
2023-03-24T00:28:02.265Z,0
2023-03-24T00:29:02.968Z,0
2023-03-24T00:30:04.120Z,0
2023-03-24T00:31:04.395Z,0
2023-03-24T00:32:04.141Z,0
2023-03-24T00:33:04.900Z,0
2023-03-24T00:34:05.538Z,0
2023-03-24T00:35:06.441Z,0
2023-03-24T00:36:07.324Z,0
2023-03-24T00:37:06.735Z,0
2023-03-24T00:38:07.464Z,0
2023-03-24T00:39:08.023Z,0
2023-03-24T00:40:08.937Z,0
2023-03-24T00:41:09.701Z,0
2023-03-24T00:42:10.186Z,0
2023-03-24T00:43:10.859Z,0
2023-03-24T00:44:11.400Z,0
2023-03-24T00:45:12.347Z,0
2023-03-24T00:46:12.757Z,0
2023-03-24T00:47:13.938Z,0
2023-03-24T00:48:14.794Z,0
2023-03-24T00:49:14.888Z,0
2023-03-24T00:50:15.441Z,0
2023-03-24T00:51:16.135Z,0
2023-03-24T00:52:16.831Z,0
2023-03-24T00:53:17.761Z,0
2023-03-24T00:54:18.314Z,0
2023-03-24T00:55:18.751Z,0
2023-03-24T00:56:19.860Z,0
2023-03-24T00:57:20.579Z,0
2023-03-24T00:58:21.470Z,0
2023-03-24T00:59:22.356Z,0
2023-03-24T01:00:23.123Z,0
2023-03-24T01:01:23.207Z,0
2023-03-24T01:02:23.633Z,0
2023-03-24T01:03:23.671Z,0
2023-03-24T01:04:24.241Z,0
2023-03-24T01:05:24.938Z,0
2023-03-24T01:06:25.484Z,0
2023-03-24T01:07:26.118Z,0
2023-03-24T01:08:27.018Z,0
2023-03-24T01:09:27.307Z,0
2023-03-24T01:10:28.609Z,0
2023-03-24T01:11:29.110Z,0
2023-03-24T01:12:30.398Z,0
2023-03-24T01:13:30.091Z,0
2023-03-24T01:14:30.805Z,0
2023-03-24T01:15:31.805Z,0
2023-03-24T01:16:32.478Z,0
2023-03-24T01:17:33.471Z,0
2023-03-24T01:18:34.250Z,0
2023-03-24T01:19:34.804Z,0
2023-03-24T01:20:35.293Z,0
2023-03-24T01:21:35.777Z,0
2023-03-24T01:22:36.264Z,0
2023-03-24T01:23:36.784Z,0
2023-03-24T01:24:37.415Z,0
2023-03-24T01:25:37.917Z,0
2023-03-24T01:26:38.447Z,0
2023-03-24T01:27:39.537Z,0
2023-03-24T01:28:40.021Z,0
2023-03-24T01:29:40.962Z,0
2023-03-24T01:30:41.892Z,0
2023-03-24T01:31:43.152Z,0
2023-03-24T01:32:43.316Z,0
2023-03-24T01:33:43.914Z,0
2023-03-24T01:34:44.828Z,0
2023-03-24T01:35:44.865Z,0
2023-03-24T01:36:45.772Z,0
2023-03-24T01:37:45.299Z,0
2023-03-24T01:38:46.252Z,0
2023-03-24T01:39:45.976Z,0
2023-03-24T01:40:46.727Z,0
2023-03-24T01:41:48.219Z,0
2023-03-24T01:42:47.551Z,0
2023-03-24T01:43:48.479Z,0
2023-03-24T01:44:49.464Z,0
2023-03-24T01:45:49.745Z,0
2023-03-24T01:46:49.523Z,0
2023-03-24T01:47:50.371Z,0
2023-03-24T01:48:50.106Z,0
2023-03-24T01:49:50.868Z,0
2023-03-24T01:50:51.227Z,0
2023-03-24T01:51:51.162Z,0
2023-03-24T01:52:51.646Z,0
2023-03-24T01:53:52.346Z,0
2023-03-24T01:54:53.064Z,0
2023-03-24T01:55:53.749Z,0
2023-03-24T01:56:54.610Z,0
2023-03-24T01:57:55.325Z,0
2023-03-24T01:58:56.439Z,0
2023-03-24T01:59:57.382Z,0
2023-03-24T02:00:58.786Z,0
2023-03-24T02:01:58.865Z,0
2023-03-24T02:02:59.968Z,0
2023-03-24T02:04:00.922Z,0
2023-03-24T02:05:00.848Z,0
2023-03-24T02:06:01.957Z,0
2023-03-24T02:07:02.836Z,0
2023-03-24T02:08:03.046Z,0
2023-03-24T02:09:03.973Z,0
2023-03-24T02:10:03.880Z,0
2023-03-24T02:11:04.792Z,0
2023-03-24T02:12:05.134Z,0
2023-03-24T02:13:06.040Z,0
2023-03-24T02:14:06.758Z,0
2023-03-24T02:15:07.456Z,0
2023-03-24T02:16:08.556Z,0
2023-03-24T02:17:07.937Z,0
2023-03-24T02:18:08.888Z,0
2023-03-24T02:19:09.599Z,0
2023-03-24T02:20:10.317Z,0
2023-03-24T02:21:10.816Z,0
2023-03-24T02:22:11.127Z,0
2023-03-24T02:23:11.401Z,0
2023-03-24T02:24:12.720Z,0
2023-03-24T02:25:13.049Z,0
2023-03-24T02:26:13.541Z,0
2023-03-24T02:27:14.267Z,0
2023-03-24T02:28:14.675Z,0
2023-03-24T02:29:14.582Z,0
2023-03-24T02:30:15.279Z,0
2023-03-24T02:31:16.359Z,0
2023-03-24T02:32:16.175Z,0
2023-03-24T02:33:17.149Z,0
2023-03-24T02:34:17.825Z,0
2023-03-24T02:35:18.328Z,0
2023-03-24T02:36:18.919Z,0
2023-03-24T02:37:19.214Z,0
2023-03-24T02:38:19.715Z,0
2023-03-24T02:39:20.398Z,0
2023-03-24T02:40:21.317Z,0
2023-03-24T02:41:21.844Z,0
2023-03-24T02:42:22.156Z,0
2023-03-24T02:43:22.666Z,0
2023-03-24T02:44:23.359Z,0
2023-03-24T02:45:24.312Z,0
2023-03-24T02:46:25.976Z,0
2023-03-24T02:47:25.991Z,0
2023-03-24T02:48:26.595Z,0
2023-03-24T02:49:26.936Z,0
2023-03-24T02:50:27.850Z,0
2023-03-24T02:51:28.256Z,0
2023-03-24T02:52:29.291Z,0
2023-03-24T02:53:29.988Z,0
2023-03-24T02:54:30.251Z,0
2023-03-24T02:55:30.578Z,0
2023-03-24T02:56:31.618Z,0
2023-03-24T02:57:31.971Z,0
2023-03-24T02:58:32.551Z,0
2023-03-24T02:59:33.082Z,0
2023-03-24T03:00:34.005Z,0
2023-03-24T03:01:35.117Z,0
2023-03-24T03:02:34.978Z,0
2023-03-24T03:03:36.179Z,0
2023-03-24T03:04:39.247Z,0
2023-03-24T03:05:37.227Z,0
2023-03-24T03:06:37.792Z,0
2023-03-24T03:07:38.313Z,0
2023-03-24T03:08:38.942Z,0
2023-03-24T03:09:39.165Z,0
2023-03-24T03:10:39.871Z,0
2023-03-24T03:11:40.649Z,0
2023-03-24T03:12:41.381Z,0
2023-03-24T03:13:41.735Z,0
2023-03-24T03:14:42.877Z,0
2023-03-24T03:15:42.813Z,0
2023-03-24T03:16:44.317Z,0
2023-03-24T03:17:44.976Z,0
2023-03-24T03:18:45.589Z,0
2023-03-24T03:19:46.296Z,0
2023-03-24T03:20:46.965Z,0
2023-03-24T03:21:47.409Z,0
2023-03-24T03:22:48.349Z,0
2023-03-24T03:23:49.252Z,0
2023-03-24T03:24:49.992Z,0
2023-03-24T03:25:50.723Z,0
2023-03-24T03:26:51.624Z,0
2023-03-24T03:27:52.594Z,0
2023-03-24T03:28:53.026Z,0
2023-03-24T03:29:53.673Z,0
2023-03-24T03:30:55.073Z,0
2023-03-24T03:31:54.873Z,0
2023-03-24T03:32:56.255Z,0
2023-03-24T03:33:56.104Z,0
2023-03-24T03:34:56.637Z,0
2023-03-24T03:35:57.434Z,0
2023-03-24T03:36:58.050Z,0
2023-03-24T03:37:58.947Z,0
2023-03-24T03:38:59.606Z,0
2023-03-24T03:40:00.139Z,0
2023-03-24T03:41:01.304Z,0
2023-03-24T03:42:00.994Z,0
2023-03-24T03:43:01.890Z,0
2023-03-24T03:44:02.387Z,0
2023-03-24T03:45:02.922Z,0
2023-03-24T03:46:03.753Z,0
2023-03-24T03:47:04.746Z,0
2023-03-24T03:48:05.911Z,0
2023-03-24T03:49:05.498Z,0
2023-03-24T03:50:06.462Z,0
2023-03-24T03:51:23.108Z,0
2023-03-24T03:53:08.162Z,0
2023-03-24T03:54:09.070Z,0
2023-03-24T03:55:09.980Z,0
2023-03-24T03:56:09.665Z,0
2023-03-24T03:57:10.769Z,0
2023-03-24T03:58:10.460Z,0
2023-03-24T03:59:11.099Z,0
2023-03-24T04:00:11.798Z,0
2023-03-24T04:01:12.947Z,0
2023-03-24T04:02:13.638Z,0
2023-03-24T04:03:14.558Z,0
2023-03-24T04:04:14.640Z,0
2023-03-24T04:05:18.201Z,0
2023-03-24T04:06:16.090Z,0
2023-03-24T04:07:16.784Z,0
2023-03-24T04:08:17.488Z,0
2023-03-24T04:10:17.824Z,0
2023-03-24T04:11:18.758Z,0
2023-03-24T04:12:19.869Z,0
2023-03-24T04:13:20.377Z,0
2023-03-24T04:14:20.465Z,0
2023-03-24T04:15:21.402Z,0
2023-03-24T04:16:22.342Z,0
2023-03-24T04:17:23.157Z,0
2023-03-24T04:18:23.723Z,0
2023-03-24T04:19:24.530Z,0
2023-03-24T04:20:24.852Z,0
2023-03-24T04:21:25.770Z,0
2023-03-24T04:22:26.259Z,0
2023-03-24T04:23:26.772Z,0
2023-03-24T04:24:27.716Z,0
2023-03-24T04:25:28.048Z,0
2023-03-24T04:26:28.737Z,0
2023-03-24T04:27:29.427Z,0
2023-03-24T04:28:29.920Z,0
2023-03-24T04:29:30.542Z,0
2023-03-24T04:30:31.228Z,0
2023-03-24T04:31:32.424Z,0
2023-03-24T04:32:33.180Z,0
2023-03-24T04:33:33.955Z,0
2023-03-24T04:34:33.928Z,0
2023-03-24T04:35:34.289Z,0
2023-03-24T04:36:35.043Z,0
2023-03-24T04:37:35.521Z,0
2023-03-24T04:38:36.447Z,0
2023-03-24T04:39:37.059Z,0
2023-03-24T04:40:37.961Z,0
2023-03-24T04:41:38.514Z,0
2023-03-24T04:42:39.051Z,0
2023-03-24T04:43:40.061Z,0
2023-03-24T04:44:40.974Z,0
2023-03-24T04:45:41.979Z,0
2023-03-24T04:46:42.426Z,0
2023-03-24T04:47:42.518Z,0
2023-03-24T04:48:42.804Z,0
2023-03-24T04:49:43.513Z,0
2023-03-24T04:50:44.419Z,0
2023-03-24T04:51:45.323Z,0
2023-03-24T04:52:45.617Z,0
2023-03-24T04:53:46.493Z,0
2023-03-24T04:54:47.019Z,0
2023-03-24T04:55:48.174Z,0
2023-03-24T04:56:48.019Z,0
2023-03-24T04:57:48.113Z,0
2023-03-24T04:58:48.388Z,4
2023-03-24T04:59:48.885Z,4
2023-03-24T05:00:49.786Z,4
2023-03-24T05:01:50.842Z,0
2023-03-24T05:02:50.905Z,0
2023-03-24T05:03:51.920Z,4
2023-03-24T05:04:52.120Z,4
2023-03-24T05:05:53.029Z,4
2023-03-24T05:06:53.330Z,4
2023-03-24T05:07:53.885Z,4
2023-03-24T05:08:54.391Z,8
2023-03-24T05:09:55.474Z,4
2023-03-24T05:10:56.034Z,8
2023-03-24T05:11:56.527Z,8
2023-03-24T05:12:57.713Z,12
2023-03-24T05:13:58.085Z,8
2023-03-24T05:14:58.563Z,8
2023-03-24T05:15:59.493Z,12
2023-03-24T05:17:00.160Z,12
2023-03-24T05:18:01.454Z,12
2023-03-24T05:19:01.077Z,16
2023-03-24T05:20:01.526Z,12
2023-03-24T05:21:02.014Z,16
2023-03-24T05:22:02.570Z,16
2023-03-24T05:23:03.483Z,24
2023-03-24T05:24:03.987Z,24
2023-03-24T05:25:04.696Z,24
2023-03-24T05:26:05.437Z,32
2023-03-24T05:27:06.159Z,32
2023-03-24T05:28:06.272Z,36
2023-03-24T05:29:06.772Z,36
2023-03-24T05:30:07.358Z,40
2023-03-24T05:31:08.045Z,44
2023-03-24T05:32:08.852Z,48
2023-03-24T05:33:10.395Z,52
2023-03-24T05:34:10.041Z,52
2023-03-24T05:35:11.171Z,60
2023-03-24T05:36:12.042Z,68
2023-03-24T05:37:12.274Z,76
2023-03-24T05:38:13.005Z,80
2023-03-24T05:39:13.501Z,88
2023-03-24T05:40:14.350Z,88
2023-03-24T05:41:15.266Z,88
2023-03-24T05:42:15.811Z,88
2023-03-24T05:43:16.499Z,88
2023-03-24T05:44:17.388Z,92
2023-03-24T05:45:18.098Z,96
2023-03-24T05:46:19.666Z,100
2023-03-24T05:47:20.192Z,112
2023-03-24T05:48:21.262Z,120
2023-03-24T05:49:22.194Z,132
2023-03-24T05:50:22.717Z,140
2023-03-24T05:51:23.219Z,140
2023-03-24T05:52:24.407Z,140
2023-03-24T05:53:25.018Z,140
2023-03-24T05:54:25.926Z,144
2023-03-24T05:55:26.223Z,140
2023-03-24T05:56:27.157Z,144
2023-03-24T05:57:27.760Z,156
2023-03-24T05:58:28.493Z,164
2023-03-24T05:59:28.984Z,168
2023-03-24T06:00:29.404Z,172
2023-03-24T06:01:30.194Z,180
2023-03-24T06:02:31.343Z,188
2023-03-24T06:03:31.800Z,204
2023-03-24T06:04:31.746Z,212
2023-03-24T06:05:32.761Z,216
2023-03-24T06:06:33.053Z,212
2023-03-24T06:07:33.342Z,208
2023-03-24T06:08:34.269Z,208
2023-03-24T06:09:34.992Z,216
2023-03-24T06:10:35.237Z,232
2023-03-24T06:11:35.525Z,248
2023-03-24T06:12:36.229Z,268
2023-03-24T06:13:36.344Z,280
2023-03-24T06:14:37.066Z,284
2023-03-24T06:15:37.803Z,288
2023-03-24T06:16:38.934Z,292
2023-03-24T06:17:39.991Z,296
2023-03-24T06:18:40.594Z,292
2023-03-24T06:19:41.721Z,292
2023-03-24T06:20:41.731Z,292
2023-03-24T06:21:44.950Z,292
2023-03-24T06:22:42.489Z,296
2023-03-24T06:23:43.211Z,300
2023-03-24T06:24:43.934Z,304
2023-03-24T06:25:45.091Z,316
2023-03-24T06:26:44.800Z,324
2023-03-24T06:27:45.774Z,336
2023-03-24T06:28:46.492Z,344
2023-03-24T06:29:47.453Z,356
2023-03-24T06:30:47.759Z,364
2023-03-24T06:31:49.105Z,376
2023-03-24T06:32:50.176Z,384
2023-03-24T06:33:50.487Z,388
2023-03-24T06:34:50.447Z,392
2023-03-24T06:35:52.022Z,392
2023-03-24T06:36:51.568Z,392
2023-03-24T06:37:52.680Z,392
2023-03-24T06:38:53.809Z,388
2023-03-24T06:39:52.916Z,388
2023-03-24T06:40:53.372Z,388
2023-03-24T06:41:53.861Z,388
2023-03-24T06:42:54.561Z,400
2023-03-24T06:43:55.074Z,408
2023-03-24T06:44:55.657Z,412
2023-03-24T06:45:56.771Z,424
2023-03-24T06:46:56.868Z,444
2023-03-24T06:47:57.861Z,468
2023-03-24T06:48:57.722Z,492
2023-03-24T06:49:58.446Z,520
2023-03-24T06:50:59.101Z,564
2023-03-24T06:51:59.613Z,632
2023-03-24T06:52:59.891Z,696
2023-03-24T06:54:00.624Z,748
2023-03-24T06:55:01.538Z,792
2023-03-24T06:56:02.523Z,832
2023-03-24T06:57:03.289Z,840
2023-03-24T06:58:04.272Z,792
2023-03-24T06:59:04.975Z,692
2023-03-24T07:00:05.361Z,584
2023-03-24T07:01:06.003Z,500
2023-03-24T07:02:06.926Z,468
2023-03-24T07:03:07.203Z,452
2023-03-24T07:04:07.417Z,436
2023-03-24T07:05:07.401Z,404
2023-03-24T07:06:08.126Z,368
2023-03-24T07:08:42.034Z,312
2023-03-24T07:09:59.377Z,292
2023-03-24T07:11:00.113Z,272
2023-03-24T07:12:00.730Z,256
2023-03-24T07:13:01.008Z,240
2023-03-24T07:14:01.542Z,228
2023-03-24T07:15:02.227Z,216
2023-03-24T07:16:03.400Z,208
2023-03-24T07:17:03.971Z,200
2023-03-24T07:18:04.507Z,200
2023-03-24T07:19:05.347Z,200
2023-03-24T07:20:06.136Z,204
2023-03-24T07:21:06.681Z,204
2023-03-24T07:22:07.531Z,208
2023-03-24T07:23:08.213Z,208
2023-03-24T07:24:09.149Z,208
2023-03-24T07:25:09.922Z,208
2023-03-24T07:26:10.659Z,216
2023-03-24T07:27:11.158Z,224
2023-03-24T07:28:12.058Z,244
2023-03-24T07:29:12.962Z,264
2023-03-24T07:30:13.458Z,280
2023-03-24T07:31:14.290Z,296
2023-03-24T07:32:14.813Z,308
2023-03-24T07:33:15.823Z,316
2023-03-24T07:34:16.790Z,332
2023-03-24T07:35:17.743Z,364
2023-03-24T07:36:18.474Z,420
2023-03-24T07:37:18.548Z,500
2023-03-24T07:38:19.684Z,580
2023-03-24T07:39:19.842Z,668
2023-03-24T07:40:20.356Z,752
2023-03-24T07:41:21.221Z,800
2023-03-24T07:42:24.162Z,824
2023-03-24T07:43:23.042Z,832
2023-03-24T07:44:23.517Z,868
2023-03-24T07:45:24.149Z,860
2023-03-24T07:46:25.220Z,1016
2023-03-24T07:47:26.125Z,732
2023-03-24T07:48:25.635Z,644
2023-03-24T07:49:30.895Z,616
2023-03-24T07:50:26.082Z,596
2023-03-24T07:51:27.146Z,608
2023-03-24T07:52:27.712Z,552
2023-03-24T07:53:27.399Z,548
2023-03-24T07:54:28.551Z,512
2023-03-24T07:55:28.831Z,492
2023-03-24T07:56:29.748Z,464
2023-03-24T07:57:31.889Z,444
2023-03-24T07:58:31.351Z,436
2023-03-24T07:59:33.998Z,436
2023-03-24T08:00:31.635Z,436
2023-03-24T08:01:32.509Z,436
2023-03-24T08:02:34.183Z,440
2023-03-24T08:03:35.028Z,448
2023-03-24T08:04:35.626Z,464
2023-03-24T08:05:36.269Z,488
2023-03-24T08:06:37.013Z,524
2023-03-24T08:07:37.118Z,556
2023-03-24T08:08:37.383Z,576
2023-03-24T08:09:37.729Z,600
2023-03-24T08:10:38.678Z,636
2023-03-24T08:11:39.627Z,684
2023-03-24T08:12:40.454Z,732
2023-03-24T08:13:40.366Z,784
2023-03-24T08:14:40.688Z,852
2023-03-24T08:15:41.834Z,892
2023-03-24T08:16:42.090Z,904
2023-03-24T08:17:42.570Z,880
2023-03-24T08:18:43.191Z,880
2023-03-24T08:20:06.037Z,924
2023-03-24T08:21:44.676Z,976
2023-03-24T08:22:45.647Z,1020
2023-03-24T08:23:46.163Z,1048
2023-03-24T08:24:46.866Z,1088
2023-03-24T08:25:48.122Z,1120
2023-03-24T08:26:47.925Z,1156
2023-03-24T08:27:49.041Z,1188
2023-03-24T08:28:49.430Z,1192
2023-03-24T08:29:50.327Z,1208
2023-03-24T08:30:51.222Z,1236
2023-03-24T08:31:51.591Z,1252
2023-03-24T08:32:52.607Z,1180
2023-03-24T08:33:52.465Z,1056
2023-03-24T08:34:53.261Z,948
2023-03-24T08:35:55.151Z,876
2023-03-24T08:36:54.479Z,844
2023-03-24T08:37:54.214Z,856
2023-03-24T08:38:55.219Z,872
2023-03-24T08:39:55.141Z,876
2023-03-24T08:40:55.723Z,864
2023-03-24T08:41:56.249Z,832
2023-03-24T08:42:56.897Z,780
2023-03-24T08:43:57.649Z,740
2023-03-24T08:44:57.840Z,708
2023-03-24T08:45:58.787Z,680
2023-03-24T08:46:59.516Z,660
2023-03-24T08:48:00.615Z,660
2023-03-24T08:49:00.850Z,680
2023-03-24T08:50:00.783Z,716
2023-03-24T08:51:01.989Z,776
2023-03-24T08:52:01.974Z,864
2023-03-24T08:53:02.856Z,960
2023-03-24T08:54:03.422Z,1056
2023-03-24T08:55:04.260Z,1152
2023-03-24T08:56:04.969Z,1240
2023-03-24T08:57:05.928Z,1312
2023-03-24T08:58:05.595Z,1372
2023-03-24T08:59:06.308Z,1396
2023-03-24T09:00:07.472Z,1440
2023-03-24T09:01:07.171Z,1412
2023-03-24T09:02:08.385Z,1392
2023-03-24T09:03:08.329Z,1380
2023-03-24T09:04:09.128Z,1384
2023-03-24T09:05:10.076Z,1396
2023-03-24T09:06:11.597Z,1392
2023-03-24T09:07:13.595Z,1376
2023-03-24T09:08:12.711Z,1320
2023-03-24T09:09:13.506Z,1268
2023-03-24T09:10:14.670Z,1208
2023-03-24T09:11:15.569Z,1160
2023-03-24T09:12:16.321Z,1124
2023-03-24T09:13:17.220Z,1100
2023-03-24T09:14:17.274Z,1088
2023-03-24T09:15:19.202Z,1072
2023-03-24T09:16:18.314Z,1056
2023-03-24T09:17:19.362Z,1020
2023-03-24T09:18:19.545Z,956
2023-03-24T09:19:19.687Z,876
2023-03-24T09:20:20.432Z,800
2023-03-24T09:21:21.411Z,740
2023-03-24T09:22:21.337Z,696
2023-03-24T09:23:22.200Z,656
2023-03-24T09:24:23.303Z,628
2023-03-24T09:25:24.058Z,616
2023-03-24T09:26:24.438Z,620
2023-03-24T09:27:24.789Z,640
2023-03-24T09:28:25.697Z,672
2023-03-24T09:29:25.801Z,708
2023-03-24T09:30:26.402Z,748
2023-03-24T09:31:27.118Z,792
2023-03-24T09:32:27.736Z,824
2023-03-24T09:33:28.966Z,824
2023-03-24T09:34:28.952Z,792
2023-03-24T09:35:29.716Z,740
2023-03-24T09:36:31.262Z,684
2023-03-24T09:37:31.074Z,640
2023-03-24T09:38:31.877Z,616
2023-03-24T09:39:32.613Z,628
2023-03-24T09:40:33.389Z,664
2023-03-24T09:41:34.534Z,724
2023-03-24T09:42:34.645Z,800
2023-03-24T09:43:35.340Z,872
2023-03-24T09:44:36.303Z,944
2023-03-24T09:45:37.420Z,1020
2023-03-24T09:46:38.009Z,1096
2023-03-24T09:47:38.806Z,1172
2023-03-24T09:48:39.900Z,1248
2023-03-24T09:49:40.830Z,1340
2023-03-24T09:50:42.026Z,1448
2023-03-24T09:51:42.842Z,1544
2023-03-24T09:52:43.401Z,1612
2023-03-24T09:53:44.077Z,1656
2023-03-24T09:54:44.816Z,1652
2023-03-24T09:55:45.764Z,1588
2023-03-24T09:56:45.695Z,1528
2023-03-24T09:57:46.718Z,1496
2023-03-24T09:58:47.627Z,1456
2023-03-24T09:59:47.990Z,1376
2023-03-24T10:00:49.049Z,1324
2023-03-24T10:01:49.048Z,1320
2023-03-24T10:02:51.648Z,1332
2023-03-24T10:03:50.753Z,1316
2023-03-24T10:04:50.513Z,1268
2023-03-24T10:05:51.661Z,1220
2023-03-24T10:06:51.545Z,1180
2023-03-24T10:07:52.509Z,1184
2023-03-24T10:08:52.656Z,1220
2023-03-24T10:09:53.225Z,1256
2023-03-24T10:10:54.233Z,1288
2023-03-24T10:11:55.156Z,1328
2023-03-24T10:12:56.082Z,1368
2023-03-24T10:13:56.592Z,1400
2023-03-24T10:14:56.734Z,1400
2023-03-24T10:15:58.381Z,1372
2023-03-24T10:16:58.205Z,1336
2023-03-24T10:17:59.180Z,1300
2023-03-24T10:18:59.618Z,1264
2023-03-24T10:20:05.876Z,1248
2023-03-24T10:21:00.603Z,1280
2023-03-24T10:22:01.755Z,1304
2023-03-24T10:23:01.680Z,1228
2023-03-24T10:24:02.579Z,1056
2023-03-24T10:25:03.532Z,864
2023-03-24T10:26:04.266Z,644
2023-03-24T10:27:03.962Z,472
2023-03-24T10:28:04.479Z,400
2023-03-24T10:29:05.115Z,388
2023-03-24T10:30:05.898Z,416
2023-03-24T10:31:06.474Z,460
2023-03-24T10:32:07.782Z,516
2023-03-24T10:33:08.588Z,568
2023-03-24T10:34:09.463Z,608
2023-03-24T10:35:10.577Z,652
2023-03-24T10:36:13.803Z,712
2023-03-24T10:37:11.169Z,756
2023-03-24T10:38:11.504Z,788
2023-03-24T10:39:50.000Z,832
2023-03-24T10:41:12.597Z,832
2023-03-24T10:42:13.518Z,808
2023-03-24T10:43:20.216Z,792
2023-03-24T10:45:14.863Z,844
2023-03-24T10:46:15.880Z,888
2023-03-24T10:47:16.163Z,900
2023-03-24T10:48:16.525Z,908
2023-03-24T10:49:16.252Z,944
2023-03-24T10:50:26.013Z,1004
2023-03-24T10:52:18.712Z,1184
2023-03-24T10:53:19.361Z,1340
2023-03-24T10:54:19.366Z,1516
2023-03-24T10:55:19.868Z,1644
2023-03-24T10:56:20.945Z,1644
2023-03-24T10:57:22.048Z,1600
2023-03-24T10:58:22.532Z,1600
2023-03-24T10:59:22.845Z,1568
2023-03-24T11:00:23.353Z,1492
2023-03-24T11:01:24.619Z,1476
2023-03-24T11:02:25.405Z,1468
2023-03-24T11:03:26.015Z,1408
2023-03-24T11:04:27.024Z,1344
2023-03-24T11:05:26.809Z,1372
2023-03-24T11:06:27.387Z,1404
2023-03-24T11:07:28.567Z,1388
2023-03-24T11:08:28.783Z,1336
2023-03-24T11:09:29.036Z,1256
2023-03-24T11:10:29.872Z,1192
2023-03-24T11:11:30.830Z,1180
2023-03-24T11:12:31.203Z,1172
2023-03-24T11:13:31.903Z,1144
2023-03-24T11:14:32.797Z,1152
2023-03-24T11:15:34.530Z,1184
2023-03-24T11:16:34.576Z,1208
2023-03-24T11:17:35.820Z,1212
2023-03-24T11:18:35.388Z,1224
2023-03-24T11:19:36.506Z,1196
2023-03-24T11:20:36.617Z,1148
2023-03-24T11:21:36.899Z,1116
2023-03-24T11:22:37.181Z,1092
2023-03-24T11:23:37.771Z,1068
2023-03-24T11:24:38.956Z,1064
2023-03-24T11:25:52.515Z,1128
2023-03-24T11:27:40.634Z,1288
2023-03-24T11:28:41.144Z,1376
2023-03-24T11:29:42.097Z,1524
2023-03-24T11:30:43.993Z,1708
2023-03-24T11:31:43.499Z,1804
2023-03-24T11:32:43.889Z,1856
2023-03-24T11:33:47.327Z,1880
2023-03-24T11:34:45.480Z,1936
2023-03-24T11:36:08.446Z,2032
2023-03-24T11:37:47.422Z,2132
2023-03-24T11:38:47.389Z,2128
2023-03-24T11:39:48.381Z,2180
2023-03-24T11:40:48.917Z,2276
2023-03-24T11:41:49.465Z,2388
2023-03-24T11:42:51.680Z,2424
2023-03-24T11:43:50.183Z,2428
2023-03-24T11:44:50.984Z,2536
2023-03-24T11:45:51.081Z,2900
2023-03-24T11:46:51.663Z,3244
2023-03-24T11:47:51.905Z,3536
2023-03-24T11:48:53.067Z,3704
2023-03-24T11:49:52.601Z,3716
2023-03-24T11:50:53.518Z,3716
2023-03-24T11:51:54.519Z,3812
2023-03-24T11:52:54.727Z,3460
2023-03-24T11:53:54.492Z,3316
2023-03-24T11:54:55.836Z,3468
2023-03-24T11:55:57.191Z,3448
2023-03-24T11:56:57.019Z,3124
2023-03-24T11:57:58.020Z,3328
2023-03-24T11:58:58.764Z,3520
2023-03-24T11:59:59.688Z,3984
2023-03-24T12:01:00.211Z,3636
2023-03-24T12:02:00.947Z,3676
2023-03-24T12:03:02.191Z,3208
2023-03-24T12:04:02.608Z,2748
2023-03-24T12:05:03.363Z,2588
2023-03-24T12:06:05.074Z,2512
2023-03-24T12:07:05.082Z,2516
2023-03-24T12:08:06.124Z,2532
2023-03-24T12:09:06.669Z,2584
2023-03-24T12:10:07.419Z,2716
2023-03-24T12:11:08.358Z,2872
2023-03-24T12:12:15.128Z,3180
2023-03-24T12:13:15.955Z,2884
2023-03-24T12:14:10.554Z,2736
2023-03-24T12:15:32.754Z,2616
2023-03-24T12:17:12.564Z,2228
2023-03-24T12:18:13.398Z,1996
2023-03-24T12:19:14.292Z,1784
2023-03-24T12:20:15.273Z,1600
2023-03-24T12:21:15.886Z,1484
2023-03-24T12:22:17.046Z,1456
2023-03-24T12:23:18.000Z,1576
2023-03-24T12:24:17.956Z,1816
2023-03-24T12:26:18.910Z,3312
2023-03-24T12:27:19.652Z,2892
2023-03-24T12:28:20.463Z,2804
2023-03-24T12:29:19.846Z,3056
2023-03-24T12:30:20.631Z,4060
2023-03-24T12:31:21.727Z,3692
2023-03-24T12:32:22.372Z,3800
2023-03-24T12:33:22.980Z,4340
2023-03-24T12:34:23.880Z,3552
2023-03-24T12:35:24.810Z,3260
2023-03-24T12:36:25.662Z,7232
2023-03-24T12:37:26.818Z,3852
2023-03-24T12:38:27.799Z,3956
2023-03-24T12:39:28.371Z,2732
2023-03-24T12:40:29.746Z,2240
2023-03-24T12:41:30.567Z,2016
2023-03-24T12:42:30.273Z,2036
2023-03-24T12:43:30.808Z,1944
2023-03-24T12:44:31.612Z,2052
2023-03-24T12:45:32.486Z,2248
2023-03-24T12:46:54.141Z,1544
2023-03-24T12:48:34.711Z,1412
2023-03-24T12:49:34.835Z,1260
2023-03-24T12:50:35.769Z,1072
2023-03-24T12:51:36.741Z,948
2023-03-24T12:52:37.682Z,872
2023-03-24T12:53:38.700Z,852
2023-03-24T12:54:39.238Z,856
2023-03-24T12:55:39.884Z,872
2023-03-24T12:56:41.230Z,880
2023-03-24T12:57:41.098Z,864
2023-03-24T12:58:41.810Z,804
2023-03-24T12:59:42.513Z,732
2023-03-24T13:00:43.232Z,704
2023-03-24T13:01:44.131Z,668
2023-03-24T13:02:44.551Z,644
2023-03-24T13:03:44.830Z,636
2023-03-24T13:04:45.142Z,656
2023-03-24T13:05:46.251Z,720
2023-03-24T13:06:46.326Z,808
2023-03-24T13:07:47.563Z,900
2023-03-24T13:08:47.614Z,976
2023-03-24T13:09:47.559Z,1016
2023-03-24T13:10:48.506Z,1040
2023-03-24T13:11:49.474Z,1052
2023-03-24T13:12:50.370Z,1012
2023-03-24T13:13:50.905Z,976
2023-03-24T13:14:51.686Z,964
2023-03-24T13:15:53.304Z,956
2023-03-24T13:16:53.208Z,960
2023-03-24T13:17:56.129Z,976
2023-03-24T13:18:54.073Z,976
2023-03-24T13:19:55.179Z,900
2023-03-24T13:20:56.097Z,784
2023-03-24T13:21:56.004Z,668
2023-03-24T13:22:57.130Z,548
2023-03-24T13:23:57.911Z,464
2023-03-24T13:24:58.872Z,420
2023-03-24T13:25:59.682Z,424
2023-03-24T13:27:00.220Z,456
2023-03-24T13:28:01.377Z,504
2023-03-24T13:29:02.473Z,580
2023-03-24T13:30:03.001Z,684
2023-03-24T13:31:03.453Z,784
2023-03-24T13:32:04.673Z,888
2023-03-24T13:33:04.686Z,904
2023-03-24T13:34:05.467Z,856
2023-03-24T13:35:06.003Z,760
2023-03-24T13:36:08.184Z,604
2023-03-24T13:37:08.193Z,484
2023-03-24T13:38:09.144Z,416
2023-03-24T13:39:09.913Z,404
2023-03-24T13:40:11.036Z,404
2023-03-24T13:41:10.801Z,420
2023-03-24T13:42:11.520Z,440
2023-03-24T13:43:12.431Z,452
2023-03-24T13:44:13.359Z,440
2023-03-24T13:45:13.529Z,428
2023-03-24T13:46:13.985Z,444
2023-03-24T13:47:14.015Z,488
2023-03-24T13:48:15.183Z,532
2023-03-24T13:49:15.125Z,520
2023-03-24T13:50:16.033Z,472
2023-03-24T13:51:16.766Z,456
2023-03-24T13:52:17.863Z,468
2023-03-24T13:53:17.845Z,516
2023-03-24T13:54:18.599Z,548
2023-03-24T13:55:19.348Z,520
2023-03-24T13:56:19.991Z,488
2023-03-24T13:57:20.795Z,520
2023-03-24T13:58:22.071Z,596
2023-03-24T13:59:22.587Z,660
2023-03-24T14:00:23.335Z,676
2023-03-24T14:01:24.242Z,644
2023-03-24T14:02:25.522Z,648
2023-03-24T14:03:25.956Z,732
2023-03-24T14:04:26.205Z,832
2023-03-24T14:05:26.753Z,840
2023-03-24T14:06:27.614Z,732
2023-03-24T14:07:28.352Z,652
2023-03-24T14:08:29.092Z,628
2023-03-24T14:09:30.245Z,632
2023-03-24T14:10:30.979Z,596
2023-03-24T14:11:31.929Z,548
2023-03-24T14:12:32.913Z,512
2023-03-24T14:13:34.053Z,508
2023-03-24T14:14:34.233Z,516
2023-03-24T14:15:34.274Z,496
2023-03-24T14:16:35.125Z,428
2023-03-24T14:17:36.109Z,416
2023-03-24T14:18:37.923Z,408
2023-03-24T14:19:37.968Z,424
2023-03-24T14:20:38.699Z,456
2023-03-24T14:21:39.616Z,500
2023-03-24T14:22:40.554Z,536
2023-03-24T14:23:41.496Z,572